sensor_id;sensor_type;location;lat;lon;timestamp;P1;durP1;ratioP1;P2;durP2;ratioP2
33150;SDS011;19508;42.578;23.416;2023-04-24T00:02:23;11.55;;;4.90;;
33150;SDS011;19508;42.578;23.416;2023-04-24T00:04:49;13.40;;;4.93;;
33150;SDS011;19508;42.578;23.416;2023-04-24T00:07:14;10.43;;;5.15;;
33150;SDS011;19508;42.578;23.416;2023-04-24T00:09:41;12.40;;;5.25;;
33150;SDS011;19508;42.578;23.416;2023-04-24T00:12:07;14.88;;;5.28;;
33150;SDS011;19508;42.578;23.416;2023-04-24T00:14:33;7.90;;;4.55;;
33150;SDS011;19508;42.578;23.416;2023-04-24T00:17:00;7.40;;;4.25;;
33150;SDS011;19508;42.578;23.416;2023-04-24T00:19:30;9.32;;;4.63;;
33150;SDS011;19508;42.578;23.416;2023-04-24T00:21:56;10.88;;;5.00;;
33150;SDS011;19508;42.578;23.416;2023-04-24T00:24:21;12.57;;;4.72;;
33150;SDS011;19508;42.578;23.416;2023-04-24T00:26:46;7.95;;;5.13;;
33150;SDS011;19508;42.578;23.416;2023-04-24T00:29:12;12.75;;;4.88;;
33150;SDS011;19508;42.578;23.416;2023-04-24T00:31:38;10.93;;;5.45;;
33150;SDS011;19508;42.578;23.416;2023-04-24T00:34:03;11.20;;;5.47;;
33150;SDS011;19508;42.578;23.416;2023-04-24T00:36:29;13.30;;;5.25;;
33150;SDS011;19508;42.578;23.416;2023-04-24T00:38:56;13.20;;;6.03;;
33150;SDS011;19508;42.578;23.416;2023-04-24T00:41:21;10.93;;;6.03;;
33150;SDS011;19508;42.578;23.416;2023-04-24T00:43:47;16.00;;;5.95;;
33150;SDS011;19508;42.578;23.416;2023-04-24T00:46:13;10.68;;;5.32;;
33150;SDS011;19508;42.578;23.416;2023-04-24T00:48:39;12.70;;;5.97;;
33150;SDS011;19508;42.578;23.416;2023-04-24T00:51:05;12.23;;;6.38;;
33150;SDS011;19508;42.578;23.416;2023-04-24T00:53:31;9.70;;;6.70;;
33150;SDS011;19508;42.578;23.416;2023-04-24T00:55:56;12.35;;;7.22;;
33150;SDS011;19508;42.578;23.416;2023-04-24T00:58:22;15.55;;;7.13;;
33150;SDS011;19508;42.578;23.416;2023-04-24T01:00:49;14.95;;;7.53;;
33150;SDS011;19508;42.578;23.416;2023-04-24T01:03:18;20.55;;;7.68;;
33150;SDS011;19508;42.578;23.416;2023-04-24T01:05:45;10.90;;;7.68;;
33150;SDS011;19508;42.578;23.416;2023-04-24T01:08:11;14.77;;;8.07;;
33150;SDS011;19508;42.578;23.416;2023-04-24T01:10:36;14.20;;;7.47;;
33150;SDS011;19508;42.578;23.416;2023-04-24T01:13:05;17.08;;;7.22;;
33150;SDS011;19508;42.578;23.416;2023-04-24T01:15:33;11.73;;;7.57;;
33150;SDS011;19508;42.578;23.416;2023-04-24T01:17:58;12.10;;;7.88;;
33150;SDS011;19508;42.578;23.416;2023-04-24T01:20:24;20.00;;;10.75;;
33150;SDS011;19508;42.578;23.416;2023-04-24T01:22:50;16.98;;;8.80;;
33150;SDS011;19508;42.578;23.416;2023-04-24T01:25:16;12.27;;;7.38;;
33150;SDS011;19508;42.578;23.416;2023-04-24T01:27:42;15.02;;;7.55;;
33150;SDS011;19508;42.578;23.416;2023-04-24T01:30:07;11.25;;;7.82;;
33150;SDS011;19508;42.578;23.416;2023-04-24T01:32:34;14.45;;;8.55;;
33150;SDS011;19508;42.578;23.416;2023-04-24T01:35:00;16.38;;;7.97;;
33150;SDS011;19508;42.578;23.416;2023-04-24T01:37:27;15.32;;;7.95;;
33150;SDS011;19508;42.578;23.416;2023-04-24T01:39:52;21.35;;;8.20;;
33150;SDS011;19508;42.578;23.416;2023-04-24T01:42:18;21.85;;;8.43;;
33150;SDS011;19508;42.578;23.416;2023-04-24T01:44:43;18.33;;;8.68;;
33150;SDS011;19508;42.578;23.416;2023-04-24T01:47:10;22.35;;;9.38;;
33150;SDS011;19508;42.578;23.416;2023-04-24T01:49:37;16.50;;;10.13;;
33150;SDS011;19508;42.578;23.416;2023-04-24T01:52:03;17.23;;;9.35;;
33150;SDS011;19508;42.578;23.416;2023-04-24T01:54:28;17.63;;;10.20;;
33150;SDS011;19508;42.578;23.416;2023-04-24T01:56:54;27.75;;;12.43;;
33150;SDS011;19508;42.578;23.416;2023-04-24T01:59:19;24.83;;;12.48;;
33150;SDS011;19508;42.578;23.416;2023-04-24T02:01:45;21.60;;;12.48;;
33150;SDS011;19508;42.578;23.416;2023-04-24T02:04:11;26.55;;;14.63;;
33150;SDS011;19508;42.578;23.416;2023-04-24T02:06:36;26.35;;;14.95;;
33150;SDS011;19508;42.578;23.416;2023-04-24T02:09:02;32.22;;;15.32;;
33150;SDS011;19508;42.578;23.416;2023-04-24T02:11:28;24.77;;;12.82;;
33150;SDS011;19508;42.578;23.416;2023-04-24T02:13:53;24.35;;;12.18;;
33150;SDS011;19508;42.578;23.416;2023-04-24T02:16:19;26.88;;;13.63;;
33150;SDS011;19508;42.578;23.416;2023-04-24T02:18:44;22.73;;;12.77;;
33150;SDS011;19508;42.578;23.416;2023-04-24T02:21:10;25.10;;;14.13;;
33150;SDS011;19508;42.578;23.416;2023-04-24T02:23:35;23.92;;;12.82;;
33150;SDS011;19508;42.578;23.416;2023-04-24T02:26:01;18.92;;;12.48;;
33150;SDS011;19508;42.578;23.416;2023-04-24T02:28:27;22.40;;;13.15;;
33150;SDS011;19508;42.578;23.416;2023-04-24T02:30:52;26.58;;;11.57;;
33150;SDS011;19508;42.578;23.416;2023-04-24T02:33:18;19.77;;;11.73;;
33150;SDS011;19508;42.578;23.416;2023-04-24T02:35:43;29.33;;;12.23;;
33150;SDS011;19508;42.578;23.416;2023-04-24T02:38:08;19.23;;;11.25;;
33150;SDS011;19508;42.578;23.416;2023-04-24T02:40:34;20.48;;;12.70;;
33150;SDS011;19508;42.578;23.416;2023-04-24T02:42:59;32.65;;;17.52;;
33150;SDS011;19508;42.578;23.416;2023-04-24T02:45:25;24.55;;;14.40;;
33150;SDS011;19508;42.578;23.416;2023-04-24T02:47:50;27.02;;;16.00;;
33150;SDS011;19508;42.578;23.416;2023-04-24T02:50:15;25.58;;;14.20;;
33150;SDS011;19508;42.578;23.416;2023-04-24T02:52:41;29.60;;;14.52;;
33150;SDS011;19508;42.578;23.416;2023-04-24T02:55:06;20.95;;;12.82;;
33150;SDS011;19508;42.578;23.416;2023-04-24T02:57:33;21.20;;;14.20;;
33150;SDS011;19508;42.578;23.416;2023-04-24T02:59:58;22.98;;;14.25;;
33150;SDS011;19508;42.578;23.416;2023-04-24T03:02:24;24.45;;;13.43;;
33150;SDS011;19508;42.578;23.416;2023-04-24T03:04:50;19.65;;;12.43;;
33150;SDS011;19508;42.578;23.416;2023-04-24T03:07:15;21.20;;;12.05;;
33150;SDS011;19508;42.578;23.416;2023-04-24T03:09:41;28.20;;;13.02;;
33150;SDS011;19508;42.578;23.416;2023-04-24T03:12:06;22.70;;;14.27;;
33150;SDS011;19508;42.578;23.416;2023-04-24T03:14:32;27.65;;;15.73;;
33150;SDS011;19508;42.578;23.416;2023-04-24T03:16:57;46.58;;;21.42;;
33150;SDS011;19508;42.578;23.416;2023-04-24T03:19:23;63.63;;;29.90;;
33150;SDS011;19508;42.578;23.416;2023-04-24T03:21:49;54.65;;;24.50;;
33150;SDS011;19508;42.578;23.416;2023-04-24T03:24:14;33.58;;;16.45;;
33150;SDS011;19508;42.578;23.416;2023-04-24T03:26:40;25.70;;;14.95;;
33150;SDS011;19508;42.578;23.416;2023-04-24T03:29:05;23.52;;;14.60;;
33150;SDS011;19508;42.578;23.416;2023-04-24T03:31:31;33.47;;;14.27;;
33150;SDS011;19508;42.578;23.416;2023-04-24T03:33:56;21.95;;;12.48;;
33150;SDS011;19508;42.578;23.416;2023-04-24T03:36:22;17.67;;;12.75;;
33150;SDS011;19508;42.578;23.416;2023-04-24T03:38:47;21.70;;;13.20;;
33150;SDS011;19508;42.578;23.416;2023-04-24T03:41:12;17.63;;;11.90;;
33150;SDS011;19508;42.578;23.416;2023-04-24T03:43:38;21.40;;;11.55;;
33150;SDS011;19508;42.578;23.416;2023-04-24T03:46:04;20.08;;;12.32;;
33150;SDS011;19508;42.578;23.416;2023-04-24T03:48:30;21.58;;;13.95;;
33150;SDS011;19508;42.578;23.416;2023-04-24T03:50:55;26.23;;;13.75;;
33150;SDS011;19508;42.578;23.416;2023-04-24T03:53:20;22.17;;;14.70;;
33150;SDS011;19508;42.578;23.416;2023-04-24T03:55:46;23.00;;;13.18;;
33150;SDS011;19508;42.578;23.416;2023-04-24T03:58:12;20.52;;;11.82;;
33150;SDS011;19508;42.578;23.416;2023-04-24T04:00:39;20.13;;;12.65;;
33150;SDS011;19508;42.578;23.416;2023-04-24T04:03:05;22.83;;;12.65;;
33150;SDS011;19508;42.578;23.416;2023-04-24T04:05:31;21.80;;;14.38;;
33150;SDS011;19508;42.578;23.416;2023-04-24T04:07:56;58.15;;;24.95;;
33150;SDS011;19508;42.578;23.416;2023-04-24T04:10:22;46.40;;;20.08;;
33150;SDS011;19508;42.578;23.416;2023-04-24T04:12:47;22.58;;;12.55;;
33150;SDS011;19508;42.578;23.416;2023-04-24T04:15:12;20.63;;;11.32;;
33150;SDS011;19508;42.578;23.416;2023-04-24T04:17:38;17.15;;;10.63;;
33150;SDS011;19508;42.578;23.416;2023-04-24T04:20:04;23.27;;;10.35;;
33150;SDS011;19508;42.578;23.416;2023-04-24T04:22:34;14.27;;;9.55;;
33150;SDS011;19508;42.578;23.416;2023-04-24T04:24:59;16.40;;;10.05;;
33150;SDS011;19508;42.578;23.416;2023-04-24T04:27:25;15.95;;;9.60;;
33150;SDS011;19508;42.578;23.416;2023-04-24T04:29:51;14.68;;;10.15;;
33150;SDS011;19508;42.578;23.416;2023-04-24T04:32:17;12.02;;;8.63;;
33150;SDS011;19508;42.578;23.416;2023-04-24T04:34:42;13.90;;;9.40;;
33150;SDS011;19508;42.578;23.416;2023-04-24T04:37:10;14.88;;;9.43;;
33150;SDS011;19508;42.578;23.416;2023-04-24T04:39:37;15.00;;;8.60;;
33150;SDS011;19508;42.578;23.416;2023-04-24T04:42:03;19.35;;;9.60;;
33150;SDS011;19508;42.578;23.416;2023-04-24T04:44:28;18.48;;;9.48;;
33150;SDS011;19508;42.578;23.416;2023-04-24T04:46:55;14.93;;;9.23;;
33150;SDS011;19508;42.578;23.416;2023-04-24T04:49:21;14.70;;;9.27;;
33150;SDS011;19508;42.578;23.416;2023-04-24T04:51:48;17.30;;;9.20;;
33150;SDS011;19508;42.578;23.416;2023-04-24T04:54:15;17.33;;;10.23;;
33150;SDS011;19508;42.578;23.416;2023-04-24T04:56:41;12.57;;;8.38;;
33150;SDS011;19508;42.578;23.416;2023-04-24T04:59:07;16.27;;;9.55;;
33150;SDS011;19508;42.578;23.416;2023-04-24T05:01:32;16.58;;;7.82;;
33150;SDS011;19508;42.578;23.416;2023-04-24T05:03:57;19.92;;;10.25;;
33150;SDS011;19508;42.578;23.416;2023-04-24T05:06:23;17.33;;;9.15;;
33150;SDS011;19508;42.578;23.416;2023-04-24T05:08:49;14.98;;;8.95;;
33150;SDS011;19508;42.578;23.416;2023-04-24T05:11:14;46.15;;;23.98;;
33150;SDS011;19508;42.578;23.416;2023-04-24T05:13:40;18.30;;;10.90;;
33150;SDS011;19508;42.578;23.416;2023-04-24T05:16:05;15.98;;;9.90;;
33150;SDS011;19508;42.578;23.416;2023-04-24T05:18:31;20.40;;;9.50;;
33150;SDS011;19508;42.578;23.416;2023-04-24T05:20:57;23.60;;;10.52;;
33150;SDS011;19508;42.578;23.416;2023-04-24T05:23:24;17.38;;;9.65;;
33150;SDS011;19508;42.578;23.416;2023-04-24T05:25:50;15.60;;;9.18;;
33150;SDS011;19508;42.578;23.416;2023-04-24T05:28:15;15.40;;;10.38;;
33150;SDS011;19508;42.578;23.416;2023-04-24T05:30:41;17.35;;;8.68;;
33150;SDS011;19508;42.578;23.416;2023-04-24T05:33:06;18.75;;;9.02;;
33150;SDS011;19508;42.578;23.416;2023-04-24T05:35:33;17.00;;;9.30;;
33150;SDS011;19508;42.578;23.416;2023-04-24T05:37:58;14.90;;;9.40;;
33150;SDS011;19508;42.578;23.416;2023-04-24T05:40:24;17.45;;;8.30;;
33150;SDS011;19508;42.578;23.416;2023-04-24T05:42:50;15.32;;;7.97;;
33150;SDS011;19508;42.578;23.416;2023-04-24T05:45:15;17.65;;;8.50;;
33150;SDS011;19508;42.578;23.416;2023-04-24T05:47:42;15.02;;;8.02;;
33150;SDS011;19508;42.578;23.416;2023-04-24T05:50:09;14.82;;;8.90;;
33150;SDS011;19508;42.578;23.416;2023-04-24T05:52:35;14.23;;;8.70;;
33150;SDS011;19508;42.578;23.416;2023-04-24T05:55:00;15.48;;;8.88;;
33150;SDS011;19508;42.578;23.416;2023-04-24T05:57:26;13.27;;;6.97;;
33150;SDS011;19508;42.578;23.416;2023-04-24T05:59:51;14.80;;;6.93;;
33150;SDS011;19508;42.578;23.416;2023-04-24T06:02:17;12.90;;;6.88;;
33150;SDS011;19508;42.578;23.416;2023-04-24T06:04:42;11.10;;;6.25;;
33150;SDS011;19508;42.578;23.416;2023-04-24T06:07:09;8.27;;;6.03;;
33150;SDS011;19508;42.578;23.416;2023-04-24T06:09:35;10.65;;;5.65;;
33150;SDS011;19508;42.578;23.416;2023-04-24T06:12:01;11.27;;;6.13;;
33150;SDS011;19508;42.578;23.416;2023-04-24T06:14:27;9.27;;;5.40;;
33150;SDS011;19508;42.578;23.416;2023-04-24T06:16:53;9.45;;;5.60;;
33150;SDS011;19508;42.578;23.416;2023-04-24T06:19:18;15.05;;;6.30;;
33150;SDS011;19508;42.578;23.416;2023-04-24T06:21:44;8.93;;;5.55;;
33150;SDS011;19508;42.578;23.416;2023-04-24T06:24:09;10.93;;;5.55;;
33150;SDS011;19508;42.578;23.416;2023-04-24T06:26:35;11.20;;;4.47;;
33150;SDS011;19508;42.578;23.416;2023-04-24T06:29:01;6.65;;;4.57;;
33150;SDS011;19508;42.578;23.416;2023-04-24T06:31:26;9.88;;;4.85;;
33150;SDS011;19508;42.578;23.416;2023-04-24T06:33:52;10.48;;;4.32;;
33150;SDS011;19508;42.578;23.416;2023-04-24T06:36:17;9.70;;;4.18;;
33150;SDS011;19508;42.578;23.416;2023-04-24T06:38:43;17.55;;;5.10;;
33150;SDS011;19508;42.578;23.416;2023-04-24T06:41:09;6.68;;;4.28;;
33150;SDS011;19508;42.578;23.416;2023-04-24T06:43:35;8.05;;;4.47;;
33150;SDS011;19508;42.578;23.416;2023-04-24T06:46:00;11.15;;;5.07;;
33150;SDS011;19508;42.578;23.416;2023-04-24T06:48:27;14.65;;;5.25;;
33150;SDS011;19508;42.578;23.416;2023-04-24T06:50:52;14.32;;;4.57;;
33150;SDS011;19508;42.578;23.416;2023-04-24T06:53:18;7.30;;;4.38;;
33150;SDS011;19508;42.578;23.416;2023-04-24T06:55:43;10.95;;;4.50;;
33150;SDS011;19508;42.578;23.416;2023-04-24T06:58:11;16.75;;;4.30;;
33150;SDS011;19508;42.578;23.416;2023-04-24T07:00:36;17.92;;;4.07;;
33150;SDS011;19508;42.578;23.416;2023-04-24T07:03:02;12.68;;;5.25;;
33150;SDS011;19508;42.578;23.416;2023-04-24T07:05:28;12.27;;;5.60;;
33150;SDS011;19508;42.578;23.416;2023-04-24T07:07:54;13.98;;;5.25;;
33150;SDS011;19508;42.578;23.416;2023-04-24T07:10:19;12.80;;;5.75;;
33150;SDS011;19508;42.578;23.416;2023-04-24T07:12:45;16.13;;;6.03;;
33150;SDS011;19508;42.578;23.416;2023-04-24T07:15:11;9.50;;;5.60;;
33150;SDS011;19508;42.578;23.416;2023-04-24T07:17:37;15.85;;;6.40;;
33150;SDS011;19508;42.578;23.416;2023-04-24T07:20:03;18.10;;;6.80;;
33150;SDS011;19508;42.578;23.416;2023-04-24T07:22:30;11.98;;;6.20;;
33150;SDS011;19508;42.578;23.416;2023-04-24T07:24:56;12.80;;;6.15;;
33150;SDS011;19508;42.578;23.416;2023-04-24T07:27:21;19.42;;;6.85;;
33150;SDS011;19508;42.578;23.416;2023-04-24T07:29:47;15.93;;;8.18;;
33150;SDS011;19508;42.578;23.416;2023-04-24T07:32:12;11.38;;;6.47;;
33150;SDS011;19508;42.578;23.416;2023-04-24T07:34:38;15.93;;;6.72;;
33150;SDS011;19508;42.578;23.416;2023-04-24T07:37:03;15.15;;;6.70;;
33150;SDS011;19508;42.578;23.416;2023-04-24T07:39:29;16.92;;;6.13;;
33150;SDS011;19508;42.578;23.416;2023-04-24T07:41:54;13.43;;;4.88;;
33150;SDS011;19508;42.578;23.416;2023-04-24T07:44:20;12.70;;;5.70;;
33150;SDS011;19508;42.578;23.416;2023-04-24T07:46:45;18.65;;;5.40;;
33150;SDS011;19508;42.578;23.416;2023-04-24T07:49:10;12.20;;;5.03;;
33150;SDS011;19508;42.578;23.416;2023-04-24T07:51:36;13.93;;;5.45;;
33150;SDS011;19508;42.578;23.416;2023-04-24T07:54:03;10.98;;;4.82;;
33150;SDS011;19508;42.578;23.416;2023-04-24T07:56:30;13.57;;;5.20;;
33150;SDS011;19508;42.578;23.416;2023-04-24T07:58:56;12.90;;;4.90;;
33150;SDS011;19508;42.578;23.416;2023-04-24T08:01:21;17.02;;;5.03;;
33150;SDS011;19508;42.578;23.416;2023-04-24T08:03:47;14.82;;;4.97;;
33150;SDS011;19508;42.578;23.416;2023-04-24T08:06:12;8.77;;;4.97;;
33150;SDS011;19508;42.578;23.416;2023-04-24T08:08:37;5.97;;;3.65;;
33150;SDS011;19508;42.578;23.416;2023-04-24T08:11:03;15.85;;;4.28;;
33150;SDS011;19508;42.578;23.416;2023-04-24T08:13:28;13.32;;;3.90;;
33150;SDS011;19508;42.578;23.416;2023-04-24T08:15:54;7.68;;;3.40;;
33150;SDS011;19508;42.578;23.416;2023-04-24T08:18:21;10.98;;;4.57;;
33150;SDS011;19508;42.578;23.416;2023-04-24T08:20:47;10.32;;;3.67;;
33150;SDS011;19508;42.578;23.416;2023-04-24T08:23:12;8.10;;;4.80;;
33150;SDS011;19508;42.578;23.416;2023-04-24T08:25:38;13.20;;;4.55;;
33150;SDS011;19508;42.578;23.416;2023-04-24T08:28:05;10.20;;;4.40;;
33150;SDS011;19508;42.578;23.416;2023-04-24T08:30:31;8.43;;;4.22;;
33150;SDS011;19508;42.578;23.416;2023-04-24T08:32:56;5.95;;;3.80;;
33150;SDS011;19508;42.578;23.416;2023-04-24T08:35:22;7.78;;;3.78;;
33150;SDS011;19508;42.578;23.416;2023-04-24T08:37:50;6.82;;;4.20;;
33150;SDS011;19508;42.578;23.416;2023-04-24T08:40:15;12.32;;;4.15;;
33150;SDS011;19508;42.578;23.416;2023-04-24T08:42:42;10.18;;;4.00;;
33150;SDS011;19508;42.578;23.416;2023-04-24T08:45:09;7.40;;;4.20;;
33150;SDS011;19508;42.578;23.416;2023-04-24T08:47:36;11.18;;;4.10;;
33150;SDS011;19508;42.578;23.416;2023-04-24T08:50:03;6.95;;;3.85;;
33150;SDS011;19508;42.578;23.416;2023-04-24T08:52:31;9.73;;;3.90;;
33150;SDS011;19508;42.578;23.416;2023-04-24T08:54:58;12.23;;;3.92;;
33150;SDS011;19508;42.578;23.416;2023-04-24T08:57:25;7.90;;;4.13;;
33150;SDS011;19508;42.578;23.416;2023-04-24T08:59:51;20.27;;;4.13;;
33150;SDS011;19508;42.578;23.416;2023-04-24T09:02:18;8.27;;;4.10;;
33150;SDS011;19508;42.578;23.416;2023-04-24T09:04:44;9.30;;;3.90;;
33150;SDS011;19508;42.578;23.416;2023-04-24T09:07:11;12.05;;;4.20;;
33150;SDS011;19508;42.578;23.416;2023-04-24T09:09:37;13.90;;;4.03;;
33150;SDS011;19508;42.578;23.416;2023-04-24T09:12:03;5.97;;;3.58;;
33150;SDS011;19508;42.578;23.416;2023-04-24T09:14:29;6.38;;;3.30;;
33150;SDS011;19508;42.578;23.416;2023-04-24T09:16:56;8.68;;;4.00;;
33150;SDS011;19508;42.578;23.416;2023-04-24T09:19:22;5.53;;;3.42;;
33150;SDS011;19508;42.578;23.416;2023-04-24T09:21:48;10.98;;;3.45;;
33150;SDS011;19508;42.578;23.416;2023-04-24T09:24:17;14.40;;;4.45;;
33150;SDS011;19508;42.578;23.416;2023-04-24T09:26:45;10.15;;;5.10;;
33150;SDS011;19508;42.578;23.416;2023-04-24T09:29:17;7.85;;;3.50;;
33150;SDS011;19508;42.578;23.416;2023-04-24T09:31:43;12.02;;;3.88;;
33150;SDS011;19508;42.578;23.416;2023-04-24T09:34:10;12.20;;;3.30;;
33150;SDS011;19508;42.578;23.416;2023-04-24T09:36:37;9.32;;;3.28;;
33150;SDS011;19508;42.578;23.416;2023-04-24T09:39:15;12.13;;;3.80;;
33150;SDS011;19508;42.578;23.416;2023-04-24T09:44:18;10.77;;;3.83;;
33150;SDS011;19508;42.578;23.416;2023-04-24T09:46:48;8.80;;;3.95;;
33150;SDS011;19508;42.578;23.416;2023-04-24T09:49:15;7.68;;;4.55;;
33150;SDS011;19508;42.578;23.416;2023-04-24T09:51:42;11.00;;;3.50;;
33150;SDS011;19508;42.578;23.416;2023-04-24T09:54:13;14.30;;;4.13;;
33150;SDS011;19508;42.578;23.416;2023-04-24T09:56:44;11.65;;;4.55;;
33150;SDS011;19508;42.578;23.416;2023-04-24T09:59:10;8.73;;;3.55;;
33150;SDS011;19508;42.578;23.416;2023-04-24T10:01:36;10.48;;;3.70;;
33150;SDS011;19508;42.578;23.416;2023-04-24T10:04:03;6.70;;;3.58;;
33150;SDS011;19508;42.578;23.416;2023-04-24T10:06:35;8.75;;;3.22;;
33150;SDS011;19508;42.578;23.416;2023-04-24T10:09:01;12.50;;;3.75;;
33150;SDS011;19508;42.578;23.416;2023-04-24T10:11:27;10.90;;;3.20;;
33150;SDS011;19508;42.578;23.416;2023-04-24T10:13:53;7.88;;;2.88;;
33150;SDS011;19508;42.578;23.416;2023-04-24T10:16:19;9.35;;;2.83;;
33150;SDS011;19508;42.578;23.416;2023-04-24T10:18:48;7.85;;;3.28;;
33150;SDS011;19508;42.578;23.416;2023-04-24T10:21:14;15.02;;;3.08;;
33150;SDS011;19508;42.578;23.416;2023-04-24T10:23:40;3.53;;;3.03;;
33150;SDS011;19508;42.578;23.416;2023-04-24T10:26:08;9.50;;;3.42;;
33150;SDS011;19508;42.578;23.416;2023-04-24T10:28:35;9.88;;;3.47;;
33150;SDS011;19508;42.578;23.416;2023-04-24T10:31:02;10.15;;;3.65;;
33150;SDS011;19508;42.578;23.416;2023-04-24T10:33:29;6.95;;;3.58;;
33150;SDS011;19508;42.578;23.416;2023-04-24T10:35:55;7.43;;;2.90;;
33150;SDS011;19508;42.578;23.416;2023-04-24T10:38:24;9.57;;;3.08;;
33150;SDS011;19508;42.578;23.416;2023-04-24T10:40:51;14.18;;;3.65;;
33150;SDS011;19508;42.578;23.416;2023-04-24T10:43:31;8.63;;;3.42;;
33150;SDS011;19508;42.578;23.416;2023-04-24T10:46:02;8.07;;;3.17;;
33150;SDS011;19508;42.578;23.416;2023-04-24T10:48:29;6.60;;;2.70;;
33150;SDS011;19508;42.578;23.416;2023-04-24T10:50:55;5.13;;;2.17;;
33150;SDS011;19508;42.578;23.416;2023-04-24T10:53:21;4.40;;;2.83;;
33150;SDS011;19508;42.578;23.416;2023-04-24T10:56:03;6.47;;;2.85;;
33150;SDS011;19508;42.578;23.416;2023-04-24T10:58:41;6.80;;;2.60;;
33150;SDS011;19508;42.578;23.416;2023-04-24T11:01:24;5.28;;;2.50;;
33150;SDS011;19508;42.578;23.416;2023-04-24T11:03:54;4.53;;;2.78;;
33150;SDS011;19508;42.578;23.416;2023-04-24T11:06:42;5.65;;;2.63;;
33150;SDS011;19508;42.578;23.416;2023-04-24T11:09:09;5.35;;;2.65;;
33150;SDS011;19508;42.578;23.416;2023-04-24T11:11:37;5.25;;;3.05;;
33150;SDS011;19508;42.578;23.416;2023-04-24T11:14:09;6.25;;;2.92;;
33150;SDS011;19508;42.578;23.416;2023-04-24T11:16:39;6.45;;;2.95;;
33150;SDS011;19508;42.578;23.416;2023-04-24T11:29:47;5.72;;;2.70;;
33150;SDS011;19508;42.578;23.416;2023-04-24T11:34:51;7.88;;;3.40;;
33150;SDS011;19508;42.578;23.416;2023-04-24T11:37:21;9.68;;;2.78;;
33150;SDS011;19508;42.578;23.416;2023-04-24T11:39:50;7.32;;;2.60;;
33150;SDS011;19508;42.578;23.416;2023-04-24T11:42:16;5.38;;;2.40;;
33150;SDS011;19508;42.578;23.416;2023-04-24T11:44:43;7.82;;;2.60;;
33150;SDS011;19508;42.578;23.416;2023-04-24T11:47:08;5.05;;;2.70;;
33150;SDS011;19508;42.578;23.416;2023-04-24T11:49:36;6.25;;;3.30;;
33150;SDS011;19508;42.578;23.416;2023-04-24T11:52:04;9.32;;;4.15;;
33150;SDS011;19508;42.578;23.416;2023-04-24T11:54:30;7.63;;;4.80;;
33150;SDS011;19508;42.578;23.416;2023-04-24T11:56:56;7.40;;;5.72;;
33150;SDS011;19508;42.578;23.416;2023-04-24T11:59:22;5.88;;;3.75;;
33150;SDS011;19508;42.578;23.416;2023-04-24T12:01:47;7.22;;;5.03;;
33150;SDS011;19508;42.578;23.416;2023-04-24T12:04:14;8.07;;;5.00;;
33150;SDS011;19508;42.578;23.416;2023-04-24T12:09:26;12.10;;;7.57;;
33150;SDS011;19508;42.578;23.416;2023-04-24T12:11:53;7.90;;;6.00;;
33150;SDS011;19508;42.578;23.416;2023-04-24T12:14:21;10.43;;;4.30;;
33150;SDS011;19508;42.578;23.416;2023-04-24T12:16:48;13.80;;;3.92;;
33150;SDS011;19508;42.578;23.416;2023-04-24T12:19:21;7.85;;;4.70;;
33150;SDS011;19508;42.578;23.416;2023-04-24T12:22:03;8.40;;;5.57;;
33150;SDS011;19508;42.578;23.416;2023-04-24T12:24:31;44.85;;;14.30;;
33150;SDS011;19508;42.578;23.416;2023-04-24T12:26:57;6.60;;;4.90;;
33150;SDS011;19508;42.578;23.416;2023-04-24T12:29:23;9.18;;;4.70;;
33150;SDS011;19508;42.578;23.416;2023-04-24T12:31:52;7.13;;;4.85;;
33150;SDS011;19508;42.578;23.416;2023-04-24T12:36:45;11.82;;;5.65;;
33150;SDS011;19508;42.578;23.416;2023-04-24T12:39:20;11.00;;;5.60;;
33150;SDS011;19508;42.578;23.416;2023-04-24T12:41:57;15.65;;;8.50;;
33150;SDS011;19508;42.578;23.416;2023-04-24T12:46:57;23.40;;;12.13;;
33150;SDS011;19508;42.578;23.416;2023-04-24T12:49:23;13.73;;;8.50;;
33150;SDS011;19508;42.578;23.416;2023-04-24T12:51:48;38.13;;;10.32;;
33150;SDS011;19508;42.578;23.416;2023-04-24T12:54:14;18.67;;;9.00;;
33150;SDS011;19508;42.578;23.416;2023-04-24T12:56:39;19.60;;;8.88;;
33150;SDS011;19508;42.578;23.416;2023-04-24T12:59:04;14.13;;;8.82;;
33150;SDS011;19508;42.578;23.416;2023-04-24T13:01:30;28.48;;;10.73;;
33150;SDS011;19508;42.578;23.416;2023-04-24T13:03:56;24.23;;;11.25;;
33150;SDS011;19508;42.578;23.416;2023-04-24T13:06:21;144.50;;;43.45;;
33150;SDS011;19508;42.578;23.416;2023-04-24T13:08:47;40.67;;;17.27;;
33150;SDS011;19508;42.578;23.416;2023-04-24T13:11:13;18.20;;;7.60;;
33150;SDS011;19508;42.578;23.416;2023-04-24T13:13:39;18.27;;;9.88;;
33150;SDS011;19508;42.578;23.416;2023-04-24T13:16:04;36.47;;;20.85;;
33150;SDS011;19508;42.578;23.416;2023-04-24T13:18:30;19.67;;;10.43;;
33150;SDS011;19508;42.578;23.416;2023-04-24T13:20:55;12.25;;;7.65;;
33150;SDS011;19508;42.578;23.416;2023-04-24T13:23:21;21.83;;;11.82;;
33150;SDS011;19508;42.578;23.416;2023-04-24T13:25:47;17.38;;;9.07;;
33150;SDS011;19508;42.578;23.416;2023-04-24T13:28:16;19.00;;;9.98;;
33150;SDS011;19508;42.578;23.416;2023-04-24T13:30:41;12.93;;;7.50;;
33150;SDS011;19508;42.578;23.416;2023-04-24T13:33:07;12.50;;;7.60;;
33150;SDS011;19508;42.578;23.416;2023-04-24T13:35:32;15.75;;;9.52;;
33150;SDS011;19508;42.578;23.416;2023-04-24T13:37:58;21.67;;;10.15;;
33150;SDS011;19508;42.578;23.416;2023-04-24T13:40:23;18.38;;;10.25;;
33150;SDS011;19508;42.578;23.416;2023-04-24T13:42:49;19.00;;;8.98;;
33150;SDS011;19508;42.578;23.416;2023-04-24T13:45:14;14.00;;;7.60;;
33150;SDS011;19508;42.578;23.416;2023-04-24T13:47:40;15.88;;;6.57;;
33150;SDS011;19508;42.578;23.416;2023-04-24T13:50:07;9.45;;;5.75;;
33150;SDS011;19508;42.578;23.416;2023-04-24T13:52:33;8.00;;;5.85;;
33150;SDS011;19508;42.578;23.416;2023-04-24T13:54:59;14.38;;;5.80;;
33150;SDS011;19508;42.578;23.416;2023-04-24T13:57:24;15.18;;;5.85;;
33150;SDS011;19508;42.578;23.416;2023-04-24T13:59:50;7.80;;;5.63;;
33150;SDS011;19508;42.578;23.416;2023-04-24T14:02:15;9.10;;;5.47;;
33150;SDS011;19508;42.578;23.416;2023-04-24T14:04:40;6.88;;;4.65;;
33150;SDS011;19508;42.578;23.416;2023-04-24T14:07:06;10.30;;;5.07;;
33150;SDS011;19508;42.578;23.416;2023-04-24T14:09:33;10.40;;;5.25;;
33150;SDS011;19508;42.578;23.416;2023-04-24T14:11:58;6.70;;;4.57;;
33150;SDS011;19508;42.578;23.416;2023-04-24T14:14:25;10.95;;;5.22;;
33150;SDS011;19508;42.578;23.416;2023-04-24T14:16:51;17.17;;;11.05;;
33150;SDS011;19508;42.578;23.416;2023-04-24T14:19:17;12.32;;;6.32;;
33150;SDS011;19508;42.578;23.416;2023-04-24T14:21:42;7.28;;;5.22;;
33150;SDS011;19508;42.578;23.416;2023-04-24T14:24:08;6.18;;;3.88;;
33150;SDS011;19508;42.578;23.416;2023-04-24T14:26:33;5.00;;;4.20;;
33150;SDS011;19508;42.578;23.416;2023-04-24T14:28:58;7.18;;;3.95;;
33150;SDS011;19508;42.578;23.416;2023-04-24T14:31:24;8.80;;;5.07;;
33150;SDS011;19508;42.578;23.416;2023-04-24T14:33:49;6.95;;;4.47;;
33150;SDS011;19508;42.578;23.416;2023-04-24T14:36:15;8.85;;;4.38;;
33150;SDS011;19508;42.578;23.416;2023-04-24T14:38:40;6.22;;;4.03;;
33150;SDS011;19508;42.578;23.416;2023-04-24T14:41:05;4.72;;;3.78;;